Clarksville City, Texas
Current Conditions -  °F | °C
As of 12:53 AM on Sunday 26 Oct 2014 (Local Time) from KGGG Reporting Station
Clear Clear  
Wind Chill: 67°   Ceiling: Unl
Heat Index: 67°   Visibility: 10mi
Dew Point: 63°   Wind: 7mph
Humidity: 87%   Direction: 200°SSW
Pressure: 30.05"   Gusts: NA
Location:  32.5368°N, 94.8683°W
Report Text: KGGG 260553Z AUTO 20006KT 10SM CLR 19/17 A3005 RMK AO2 SLP170 T01940172 10233 20189 402890139 58009
Loading
Personal Weather Stations






























Interactive Weather Map
Tropical Storm Tracking
New forecast layout! Learn more

10-Day Weather Forecast

Advertisements
Track Severe Weather on mobile